createdAt,value
2018-12-03T00:04:46.947Z,1.03
2018-12-03T00:09:50.851Z,0.87
2018-12-03T00:14:54.940Z,1.00
2018-12-03T00:19:58.866Z,0.80
2018-12-03T00:25:02.815Z,0.60
2018-12-03T00:30:09.109Z,0.60
2018-12-03T00:35:13.079Z,0.67
2018-12-03T00:40:17.304Z,0.93
2018-12-03T00:45:21.187Z,0.80
2018-12-03T00:50:25.079Z,0.90
2018-12-03T00:55:29.004Z,0.67
2018-12-03T01:00:32.899Z,0.80
2018-12-03T01:05:36.843Z,0.90
2018-12-03T01:10:40.783Z,0.70
2018-12-03T01:15:45.074Z,0.60
2018-12-03T01:20:48.989Z,1.20
2018-12-03T01:25:52.915Z,0.80
2018-12-03T01:30:56.819Z,0.90
2018-12-03T01:36:00.787Z,0.90
2018-12-03T01:41:05.091Z,0.90
2018-12-03T01:46:08.983Z,0.90
2018-12-03T01:51:12.907Z,1.10
2018-12-03T01:56:16.832Z,1.03
2018-12-03T02:01:20.856Z,1.07
2018-12-03T02:06:24.764Z,0.83
2018-12-03T02:11:28.674Z,0.80
2018-12-03T02:16:32.539Z,0.70
2018-12-03T02:21:36.448Z,0.67
2018-12-03T02:26:40.351Z,1.10
2018-12-03T02:31:44.238Z,0.80
2018-12-03T02:36:48.275Z,1.00
2018-12-03T02:41:52.185Z,0.90
2018-12-03T02:46:56.111Z,1.23
2018-12-03T02:52:00.052Z,0.60
2018-12-03T02:57:03.956Z,0.60
2018-12-03T03:02:07.849Z,0.60
2018-12-03T03:07:11.725Z,0.40
2018-12-03T03:12:15.617Z,0.40
2018-12-03T03:17:19.517Z,0.50
2018-12-03T03:22:23.585Z,0.57
2018-12-03T03:27:27.473Z,0.77
2018-12-03T03:32:31.380Z,0.60
2018-12-03T03:37:35.638Z,0.60
2018-12-03T03:42:39.527Z,0.43
2018-12-03T03:47:43.480Z,0.50
2018-12-03T03:52:47.403Z,0.50
2018-12-03T03:57:51.348Z,0.70
2018-12-03T04:02:55.244Z,0.50
2018-12-03T04:07:59.162Z,0.40
2018-12-03T04:13:03.080Z,0.43
2018-12-03T04:18:06.990Z,0.60
2018-12-03T04:23:10.881Z,0.40
2018-12-03T04:28:14.764Z,0.20
2018-12-03T04:33:18.683Z,0.30
2018-12-03T04:38:22.600Z,0.27
2018-12-03T04:43:26.483Z,0.20
2018-12-03T04:48:30.375Z,0.30
2018-12-03T04:53:34.308Z,0.30
2018-12-03T04:58:38.249Z,0.50
2018-12-03T05:03:42.113Z,0.60
2018-12-03T05:08:46.031Z,0.40
2018-12-03T05:13:49.918Z,0.40
2018-12-03T05:18:53.809Z,0.70
2018-12-03T05:23:57.721Z,0.70
2018-12-03T05:29:01.645Z,0.90
2018-12-03T05:34:06.214Z,0.80
2018-12-03T05:39:10.367Z,0.53
2018-12-03T05:44:14.247Z,0.73
2018-12-03T05:49:18.127Z,0.63
2018-12-03T05:54:22.094Z,0.80
2018-12-03T05:59:25.994Z,0.87
2018-12-03T06:04:30.756Z,1.00
2018-12-03T06:09:34.778Z,0.73
2018-12-03T06:14:38.680Z,0.57
2018-12-03T06:19:42.560Z,0.73
2018-12-03T06:24:46.603Z,0.70
2018-12-03T06:29:50.569Z,0.70
2018-12-03T06:34:54.532Z,0.80
2018-12-03T06:39:58.532Z,0.93
2018-12-03T06:45:02.491Z,0.90
2018-12-03T06:50:08.576Z,1.20
2018-12-03T06:55:12.547Z,1.40
2018-12-03T07:00:17.758Z,1.17
2018-12-03T07:05:21.719Z,1.47
2018-12-03T07:10:25.901Z,1.20
2018-12-03T07:15:32.023Z,1.17
2018-12-03T07:20:35.973Z,1.00
2018-12-03T07:25:39.998Z,1.10
2018-12-03T07:30:43.919Z,1.00
2018-12-03T07:35:47.804Z,1.10
2018-12-03T07:40:51.749Z,1.17
2018-12-03T07:45:55.675Z,1.33
2018-12-03T07:50:59.559Z,1.00
2018-12-03T07:56:03.548Z,1.50
2018-12-03T08:01:07.485Z,1.50
2018-12-03T08:06:11.405Z,1.50
2018-12-03T08:11:15.722Z,1.37
2018-12-03T08:16:19.651Z,1.37
2018-12-03T08:21:23.607Z,1.37
2018-12-03T08:26:27.623Z,1.20
2018-12-03T08:31:32.109Z,1.10
2018-12-03T08:36:36.090Z,1.17
2018-12-03T08:41:40.606Z,1.33
2018-12-03T08:46:44.560Z,1.07
2018-12-03T08:51:48.610Z,1.10
2018-12-03T08:56:52.617Z,1.23
2018-12-03T09:01:56.688Z,1.50
2018-12-03T09:07:00.666Z,1.40
2018-12-03T09:12:04.862Z,1.10
2018-12-03T09:17:09.829Z,1.50
2018-12-03T09:22:13.709Z,1.20
2018-12-03T09:27:17.646Z,1.13
2018-12-03T09:32:21.899Z,1.10
2018-12-03T09:37:27.171Z,1.30
2018-12-03T09:42:33.857Z,1.47
2018-12-03T09:47:39.789Z,1.20
2018-12-03T09:52:44.647Z,1.53
2018-12-03T09:57:57.922Z,1.97
2018-12-03T10:03:05.176Z,1.60
2018-12-03T10:08:10.353Z,1.53
2018-12-03T10:13:14.421Z,1.63
2018-12-03T10:18:18.413Z,1.27
2018-12-03T10:23:22.683Z,1.40
2018-12-03T10:28:27.298Z,1.67
2018-12-03T10:33:33.023Z,1.50
2018-12-03T10:38:38.872Z,1.50
2018-12-03T10:43:43.226Z,1.50
2018-12-03T10:48:47.173Z,1.60
2018-12-03T10:53:51.302Z,1.77
2018-12-03T10:58:55.390Z,1.63
2018-12-03T11:04:00.892Z,1.10
2018-12-03T11:09:07.032Z,1.83
2018-12-03T11:14:11.454Z,1.70
2018-12-03T11:19:15.965Z,1.50
2018-12-03T11:24:19.920Z,2.03
2018-12-03T11:29:23.927Z,1.40
2018-12-03T11:34:27.932Z,2.17
2018-12-03T11:39:41.533Z,2.10
2018-12-03T11:44:45.546Z,1.53
2018-12-03T11:49:49.493Z,1.90
2018-12-03T11:54:54.165Z,1.70
2018-12-03T11:59:58.243Z,1.67
2018-12-03T12:05:02.210Z,1.50
2018-12-03T12:10:09.142Z,1.80
2018-12-03T12:15:13.561Z,1.60
2018-12-03T12:20:17.566Z,1.50
2018-12-03T12:25:21.517Z,1.67
2018-12-03T12:30:25.449Z,1.50
2018-12-03T12:35:29.365Z,1.83
2018-12-03T12:40:33.870Z,1.70
2018-12-03T12:45:41.565Z,1.70
2018-12-03T12:50:45.475Z,1.43
2018-12-03T12:55:49.463Z,1.20
2018-12-03T13:00:53.407Z,1.80
2018-12-03T13:05:57.342Z,1.40
2018-12-03T13:11:01.269Z,1.40
2018-12-03T13:16:05.465Z,1.20
2018-12-03T13:21:10.034Z,1.40
2018-12-03T13:26:14.110Z,1.70
2018-12-03T13:31:18.033Z,1.40
2018-12-03T13:36:21.994Z,1.27
2018-12-03T13:41:25.939Z,1.27
2018-12-03T13:46:29.918Z,1.30
2018-12-03T13:51:33.827Z,1.30
2018-12-03T13:56:38.546Z,1.73
2018-12-03T14:01:41.780Z,1.80
2018-12-03T14:06:52.941Z,1.80
2018-12-03T14:12:05.135Z,1.60
2018-12-03T14:17:18.547Z,1.17
2018-12-03T14:22:25.725Z,1.47
2018-12-03T14:27:29.638Z,1.00
2018-12-03T14:32:33.554Z,1.43
2018-12-03T14:37:37.859Z,1.63
2018-12-03T14:42:41.837Z,1.23
2018-12-03T14:47:45.985Z,1.20
2018-12-03T14:52:50.047Z,1.30
2018-12-03T14:57:53.972Z,1.10
2018-12-03T15:02:57.902Z,1.13
2018-12-03T15:08:02.265Z,1.40
2018-12-03T15:13:06.211Z,1.63
2018-12-03T15:18:10.768Z,1.20
2018-12-03T15:23:14.665Z,0.83
2018-12-03T15:28:18.654Z,1.00
2018-12-03T15:33:22.642Z,1.00
2018-12-03T15:38:26.549Z,0.97
2018-12-03T15:43:30.475Z,0.90
2018-12-03T15:48:34.517Z,0.80
2018-12-03T15:53:38.495Z,0.73
2018-12-03T15:58:42.404Z,0.80
2018-12-03T16:03:46.457Z,0.70
2018-12-03T16:08:50.689Z,1.00
2018-12-03T16:13:54.728Z,0.70
2018-12-03T16:18:58.684Z,0.80
2018-12-03T16:24:02.606Z,1.20
2018-12-03T16:29:06.588Z,0.90
2018-12-03T16:34:11.536Z,0.90
2018-12-03T16:39:15.438Z,0.97
2018-12-03T16:44:19.432Z,1.00
2018-12-03T16:49:23.422Z,0.97
2018-12-03T16:54:27.353Z,1.00
2018-12-03T16:59:31.432Z,1.23
2018-12-03T17:04:35.798Z,1.00
2018-12-03T17:09:39.888Z,1.27
2018-12-03T17:14:44.105Z,1.10
2018-12-03T17:19:48.172Z,1.17
2018-12-03T17:24:52.233Z,1.23
2018-12-03T17:29:56.479Z,1.40
2018-12-03T17:35:00.435Z,1.40
2018-12-03T17:40:07.069Z,1.27
2018-12-03T17:45:13.003Z,1.30
2018-12-03T17:50:17.005Z,1.60
2018-12-03T17:55:21.041Z,1.40
2018-12-03T18:00:25.086Z,1.53
2018-12-03T18:05:29.161Z,1.27
2018-12-03T18:10:33.464Z,1.67
2018-12-03T18:15:37.361Z,1.80
2018-12-03T18:20:41.375Z,1.60
2018-12-03T18:25:45.297Z,1.47
2018-12-03T18:30:49.235Z,1.63
2018-12-03T18:35:53.184Z,1.70
2018-12-03T18:41:03.169Z,2.10
2018-12-03T18:46:01.299Z,1.73
2018-12-03T18:51:05.732Z,1.97
2018-12-03T18:56:10.271Z,2.00
2018-12-03T19:01:14.602Z,1.60
2018-12-03T19:06:19.077Z,2.10
2018-12-03T19:11:23.441Z,1.87
2018-12-03T19:16:27.450Z,1.73
2018-12-03T19:27:05.531Z,1.17
2018-12-03T19:32:10.277Z,1.47
2018-12-03T19:37:15.015Z,1.73
2018-12-03T19:42:19.976Z,1.60
2018-12-03T19:47:24.519Z,2.20
2018-12-03T19:52:28.992Z,2.37
2018-12-03T19:57:34.324Z,2.20
2018-12-03T20:02:38.560Z,2.03
2018-12-03T20:07:42.996Z,2.20
2018-12-03T20:12:47.017Z,1.90
2018-12-03T20:17:54.022Z,2.00
2018-12-03T20:23:10.078Z,1.87
2018-12-03T20:29:23.079Z,2.23
2018-12-03T20:34:33.817Z,2.00
2018-12-03T20:41:58.787Z,1.93
2018-12-03T20:47:09.652Z,2.13
2018-12-03T20:52:18.868Z,2.67
2018-12-03T20:57:26.592Z,2.27
2018-12-03T21:02:33.179Z,2.60
2018-12-03T21:07:38.981Z,2.63
2018-12-03T21:12:44.519Z,2.83
2018-12-03T21:17:53.721Z,2.77
2018-12-03T21:22:58.350Z,3.17
2018-12-03T21:28:04.155Z,2.53
2018-12-03T21:33:10.031Z,2.33
2018-12-03T21:38:14.766Z,1.90
2018-12-03T21:43:20.793Z,2.00
2018-12-03T21:48:25.823Z,1.87
2018-12-03T21:53:30.264Z,1.47
2018-12-03T21:58:34.380Z,1.70
2018-12-03T22:03:38.439Z,2.13
2018-12-03T22:08:42.446Z,1.87
2018-12-03T22:13:46.489Z,2.37
2018-12-03T22:18:50.465Z,2.70
2018-12-03T22:23:54.789Z,2.93
2018-12-03T22:28:58.796Z,2.77
2018-12-03T22:34:02.732Z,2.60
2018-12-03T22:39:06.709Z,2.83
2018-12-03T22:44:10.629Z,2.33
2018-12-03T22:49:14.689Z,2.43
2018-12-03T22:54:18.643Z,2.40
2018-12-03T22:59:22.620Z,2.30
2018-12-03T23:04:26.556Z,2.20
2018-12-03T23:09:30.464Z,1.93
2018-12-03T23:14:34.409Z,2.17
2018-12-03T23:19:38.380Z,1.83
2018-12-03T23:24:42.317Z,2.57
2018-12-03T23:29:46.265Z,2.03
2018-12-03T23:34:50.200Z,2.20
2018-12-03T23:39:54.122Z,2.10
2018-12-03T23:44:58.956Z,2.03
2018-12-03T23:50:02.916Z,1.73
2018-12-03T23:55:06.832Z,1.67
